sensor_id;sensor_type;location;lat;lon;timestamp;pressure;altitude;pressure_sealevel;temperature;humidity
52105;BME280;38103;42.776;23.112;2022-11-20T00:00:00;93224.44;;;15.87;77.68
52105;BME280;38103;42.776;23.112;2022-11-20T00:02:26;93211.81;;;15.93;76.84
52105;BME280;38103;42.776;23.112;2022-11-20T00:04:51;93216.81;;;16.00;76.60
52105;BME280;38103;42.776;23.112;2022-11-20T00:07:16;93223.16;;;16.04;76.92
52105;BME280;38103;42.776;23.112;2022-11-20T00:09:42;93235.44;;;16.05;76.24
52105;BME280;38103;42.776;23.112;2022-11-20T00:12:07;93245.28;;;16.04;75.96
52105;BME280;38103;42.776;23.112;2022-11-20T00:14:33;93246.13;;;16.05;75.28
52105;BME280;38103;42.776;23.112;2022-11-20T00:16:58;93228.44;;;16.09;75.45
52105;BME280;38103;42.776;23.112;2022-11-20T00:19:23;93227.94;;;16.07;75.98
52105;BME280;38103;42.776;23.112;2022-11-20T00:21:49;93190.56;;;15.68;76.09
52105;BME280;38103;42.776;23.112;2022-11-20T00:24:16;93241.31;;;16.02;76.04
52105;BME280;38103;42.776;23.112;2022-11-20T00:26:42;93229.66;;;15.97;76.14
52105;BME280;38103;42.776;23.112;2022-11-20T00:29:08;93229.06;;;16.01;76.02
52105;BME280;38103;42.776;23.112;2022-11-20T00:31:34;93213.78;;;15.87;76.47
52105;BME280;38103;42.776;23.112;2022-11-20T00:34:00;93237.66;;;15.97;76.65
52105;BME280;38103;42.776;23.112;2022-11-20T00:36:27;93232.38;;;15.92;76.46
52105;BME280;38103;42.776;23.112;2022-11-20T00:38:56;93209.34;;;15.77;76.31
52105;BME280;38103;42.776;23.112;2022-11-20T00:41:23;93198.03;;;15.66;76.30
52105;BME280;38103;42.776;23.112;2022-11-20T00:43:48;93199.13;;;15.65;77.51
52105;BME280;38103;42.776;23.112;2022-11-20T00:46:16;93226.00;;;15.88;77.70
52105;BME280;38103;42.776;23.112;2022-11-20T00:48:43;93231.97;;;15.80;78.54
52105;BME280;38103;42.776;23.112;2022-11-20T00:51:08;93228.31;;;15.75;78.87
52105;BME280;38103;42.776;23.112;2022-11-20T00:53:36;93233.63;;;15.75;78.57
52105;BME280;38103;42.776;23.112;2022-11-20T00:56:04;93227.56;;;15.70;79.18
52105;BME280;38103;42.776;23.112;2022-11-20T00:58:34;93182.88;;;15.42;79.45
52105;BME280;38103;42.776;23.112;2022-11-20T01:01:08;93219.31;;;15.71;79.83
52105;BME280;38103;42.776;23.112;2022-11-20T01:03:36;93223.09;;;15.65;79.89
52105;BME280;38103;42.776;23.112;2022-11-20T01:06:14;93216.19;;;15.64;80.20
52105;BME280;38103;42.776;23.112;2022-11-20T01:08:40;93182.00;;;15.47;80.22
52105;BME280;38103;42.776;23.112;2022-11-20T01:11:11;93209.84;;;15.60;80.03
52105;BME280;38103;42.776;23.112;2022-11-20T01:13:37;93210.88;;;15.64;80.07
52105;BME280;38103;42.776;23.112;2022-11-20T01:16:05;93206.59;;;15.63;80.17
52105;BME280;38103;42.776;23.112;2022-11-20T01:18:31;93197.53;;;15.64;79.59
52105;BME280;38103;42.776;23.112;2022-11-20T01:21:01;93211.88;;;15.68;79.97
52105;BME280;38103;42.776;23.112;2022-11-20T01:23:30;93203.94;;;15.63;79.68
52105;BME280;38103;42.776;23.112;2022-11-20T01:25:56;93192.97;;;15.64;79.92
52105;BME280;38103;42.776;23.112;2022-11-20T01:28:21;93189.56;;;15.64;79.00
52105;BME280;38103;42.776;23.112;2022-11-20T01:30:46;93202.00;;;15.69;79.38
52105;BME280;38103;42.776;23.112;2022-11-20T01:33:12;93198.25;;;15.70;79.47
52105;BME280;38103;42.776;23.112;2022-11-20T01:35:37;93198.03;;;15.66;79.62
52105;BME280;38103;42.776;23.112;2022-11-20T01:38:02;93179.91;;;15.68;79.58
52105;BME280;38103;42.776;23.112;2022-11-20T01:40:28;93181.81;;;15.62;79.85
52105;BME280;38103;42.776;23.112;2022-11-20T01:43:09;93193.28;;;15.63;79.50
52105;BME280;38103;42.776;23.112;2022-11-20T01:48:18;93192.91;;;15.70;78.46
52105;BME280;38103;42.776;23.112;2022-11-20T01:50:44;93189.19;;;15.71;77.97
52105;BME280;38103;42.776;23.112;2022-11-20T01:53:13;93199.78;;;15.76;78.08
52105;BME280;38103;42.776;23.112;2022-11-20T01:55:42;93204.31;;;15.75;78.08
52105;BME280;38103;42.776;23.112;2022-11-20T01:58:10;93191.56;;;15.72;78.34
52105;BME280;38103;42.776;23.112;2022-11-20T02:00:36;93203.81;;;15.73;77.81
52105;BME280;38103;42.776;23.112;2022-11-20T02:03:08;93192.59;;;15.77;77.62
52105;BME280;38103;42.776;23.112;2022-11-20T02:05:41;93180.84;;;15.78;77.43
52105;BME280;38103;42.776;23.112;2022-11-20T02:08:08;93177.31;;;15.82;76.88
52105;BME280;38103;42.776;23.112;2022-11-20T02:10:34;93190.38;;;15.84;77.71
52105;BME280;38103;42.776;23.112;2022-11-20T02:13:00;93188.25;;;15.81;77.53
52105;BME280;38103;42.776;23.112;2022-11-20T02:15:44;93199.72;;;15.81;77.20
52105;BME280;38103;42.776;23.112;2022-11-20T02:18:10;93184.31;;;15.78;77.19
52105;BME280;38103;42.776;23.112;2022-11-20T02:20:37;93189.34;;;15.80;77.09
52105;BME280;38103;42.776;23.112;2022-11-20T02:23:12;93180.63;;;15.74;77.00
52105;BME280;38103;42.776;23.112;2022-11-20T02:25:43;93207.53;;;15.72;77.13
52105;BME280;38103;42.776;23.112;2022-11-20T02:28:09;93203.81;;;15.73;77.68
52105;BME280;38103;42.776;23.112;2022-11-20T02:30:35;93203.59;;;15.70;77.24
52105;BME280;38103;42.776;23.112;2022-11-20T02:33:00;93213.69;;;15.73;77.42
52105;BME280;38103;42.776;23.112;2022-11-20T02:37:54;93211.75;;;15.79;77.23
52105;BME280;38103;42.776;23.112;2022-11-20T02:40:20;93222.47;;;15.73;77.34
52105;BME280;38103;42.776;23.112;2022-11-20T02:42:45;93222.75;;;15.72;77.81
52105;BME280;38103;42.776;23.112;2022-11-20T02:45:11;93219.00;;;15.73;78.28
52105;BME280;38103;42.776;23.112;2022-11-20T02:47:37;93224.13;;;15.69;77.87
52105;BME280;38103;42.776;23.112;2022-11-20T02:50:03;93223.66;;;15.62;78.49
52105;BME280;38103;42.776;23.112;2022-11-20T02:52:29;93188.75;;;15.39;78.43
52105;BME280;38103;42.776;23.112;2022-11-20T02:54:55;93227.84;;;15.68;78.54
52105;BME280;38103;42.776;23.112;2022-11-20T02:57:20;93229.47;;;15.69;78.54
52105;BME280;38103;42.776;23.112;2022-11-20T02:59:45;93185.53;;;15.42;78.71
52105;BME280;38103;42.776;23.112;2022-11-20T03:02:11;93235.34;;;15.66;78.99
52105;BME280;38103;42.776;23.112;2022-11-20T03:04:36;93236.47;;;15.60;78.84
52105;BME280;38103;42.776;23.112;2022-11-20T03:07:02;93245.25;;;15.60;78.44
52105;BME280;38103;42.776;23.112;2022-11-20T03:09:27;93248.94;;;15.64;78.35
52105;BME280;38103;42.776;23.112;2022-11-20T03:11:53;93247.13;;;15.60;78.03
52105;BME280;38103;42.776;23.112;2022-11-20T03:14:18;93247.13;;;15.60;78.03
52105;BME280;38103;42.776;23.112;2022-11-20T03:16:43;93256.66;;;15.66;78.11
52105;BME280;38103;42.776;23.112;2022-11-20T03:19:09;93250.28;;;15.62;78.56
52105;BME280;38103;42.776;23.112;2022-11-20T03:21:34;93249.78;;;15.60;78.76
52105;BME280;38103;42.776;23.112;2022-11-20T03:24:01;93248.84;;;15.50;79.60
52105;BME280;38103;42.776;23.112;2022-11-20T03:26:27;93253.13;;;15.46;79.68
52105;BME280;38103;42.776;23.112;2022-11-20T03:28:57;93271.25;;;15.44;79.87
52105;BME280;38103;42.776;23.112;2022-11-20T03:31:32;93262.66;;;15.52;80.28
52105;BME280;38103;42.776;23.112;2022-11-20T03:33:59;93265.94;;;15.44;80.49
52105;BME280;38103;42.776;23.112;2022-11-20T03:36:25;93284.06;;;15.42;80.59
52105;BME280;38103;42.776;23.112;2022-11-20T03:38:52;93275.78;;;15.44;80.78
52105;BME280;38103;42.776;23.112;2022-11-20T03:41:20;93249.56;;;15.32;81.11
52105;BME280;38103;42.776;23.112;2022-11-20T03:43:58;93235.28;;;15.22;82.37
52105;BME280;38103;42.776;23.112;2022-11-20T03:46:24;93265.81;;;15.30;82.71
52105;BME280;38103;42.776;23.112;2022-11-20T03:48:50;93252.56;;;15.25;82.52
52105;BME280;38103;42.776;23.112;2022-11-20T03:51:21;93263.84;;;15.11;83.47
52105;BME280;38103;42.776;23.112;2022-11-20T03:53:48;93266.44;;;15.22;83.26
52105;BME280;38103;42.776;23.112;2022-11-20T03:56:16;93267.78;;;15.19;83.03
52105;BME280;38103;42.776;23.112;2022-11-20T03:58:42;93251.28;;;15.17;83.16
52105;BME280;38103;42.776;23.112;2022-11-20T04:01:22;93245.50;;;15.10;82.78
52105;BME280;38103;42.776;23.112;2022-11-20T04:03:48;93237.22;;;15.11;82.50
52105;BME280;38103;42.776;23.112;2022-11-20T04:06:19;93206.75;;;14.98;82.49
52105;BME280;38103;42.776;23.112;2022-11-20T04:08:45;93219.59;;;14.85;83.67
52105;BME280;38103;42.776;23.112;2022-11-20T04:11:22;93225.47;;;14.82;83.93
52105;BME280;38103;42.776;23.112;2022-11-20T04:13:51;93237.75;;;14.78;84.39
52105;BME280;38103;42.776;23.112;2022-11-20T04:16:17;93234.38;;;14.67;84.99
52105;BME280;38103;42.776;23.112;2022-11-20T04:18:43;93247.38;;;14.74;84.60
52105;BME280;38103;42.776;23.112;2022-11-20T04:21:09;93251.03;;;14.83;83.71
52105;BME280;38103;42.776;23.112;2022-11-20T04:23:35;93222.84;;;14.77;83.77
52105;BME280;38103;42.776;23.112;2022-11-20T04:26:05;93230.09;;;14.71;83.77
52105;BME280;38103;42.776;23.112;2022-11-20T04:28:31;93267.56;;;14.75;83.63
52105;BME280;38103;42.776;23.112;2022-11-20T04:33:28;93272.81;;;14.91;82.35
52105;BME280;38103;42.776;23.112;2022-11-20T04:35:53;93278.06;;;15.01;82.12
52105;BME280;38103;42.776;23.112;2022-11-20T04:38:19;93270.63;;;14.98;81.67
52105;BME280;38103;42.776;23.112;2022-11-20T04:40:44;93261.47;;;15.10;80.90
52105;BME280;38103;42.776;23.112;2022-11-20T04:43:09;93262.50;;;15.14;80.84
52105;BME280;38103;42.776;23.112;2022-11-20T04:45:35;93267.06;;;15.08;80.27
52105;BME280;38103;42.776;23.112;2022-11-20T04:48:00;93259.94;;;15.03;80.31
52105;BME280;38103;42.776;23.112;2022-11-20T04:50:25;93261.03;;;15.02;80.99
52105;BME280;38103;42.776;23.112;2022-11-20T04:52:51;93255.69;;;15.02;80.59
52105;BME280;38103;42.776;23.112;2022-11-20T04:55:16;93249.03;;;15.05;80.66
52105;BME280;38103;42.776;23.112;2022-11-20T04:57:41;93241.28;;;15.03;81.01
52105;BME280;38103;42.776;23.112;2022-11-20T05:00:07;93224.88;;;14.96;81.47
52105;BME280;38103;42.776;23.112;2022-11-20T05:02:33;93226.50;;;14.92;81.86
52105;BME280;38103;42.776;23.112;2022-11-20T05:04:58;93206.78;;;14.93;81.69
52105;BME280;38103;42.776;23.112;2022-11-20T05:07:23;93205.78;;;14.83;82.77
52105;BME280;38103;42.776;23.112;2022-11-20T05:09:49;93200.19;;;14.85;82.90
52105;BME280;38103;42.776;23.112;2022-11-20T05:12:14;93200.97;;;14.85;83.25
52105;BME280;38103;42.776;23.112;2022-11-20T05:14:39;93208.69;;;14.87;83.09
52105;BME280;38103;42.776;23.112;2022-11-20T05:17:05;93220.81;;;14.69;84.00
52105;BME280;38103;42.776;23.112;2022-11-20T05:19:30;93221.03;;;14.72;84.35
52105;BME280;38103;42.776;23.112;2022-11-20T05:21:56;93220.69;;;14.79;83.80
52105;BME280;38103;42.776;23.112;2022-11-20T05:24:21;93217.31;;;14.73;84.25
52105;BME280;38103;42.776;23.112;2022-11-20T05:26:47;93221.88;;;14.68;84.75
52105;BME280;38103;42.776;23.112;2022-11-20T05:29:12;93219.22;;;14.68;84.89
52105;BME280;38103;42.776;23.112;2022-11-20T05:31:40;93227.22;;;14.62;85.50
52105;BME280;38103;42.776;23.112;2022-11-20T05:34:06;93232.56;;;14.62;85.46
52105;BME280;38103;42.776;23.112;2022-11-20T05:36:31;93232.47;;;14.73;84.77
52105;BME280;38103;42.776;23.112;2022-11-20T05:38:57;93244.66;;;14.79;84.54
52105;BME280;38103;42.776;23.112;2022-11-20T05:41:22;93262.78;;;14.77;84.71
52105;BME280;38103;42.776;23.112;2022-11-20T05:43:49;93267.25;;;14.87;84.50
52105;BME280;38103;42.776;23.112;2022-11-20T05:46:18;93271.47;;;14.93;84.39
52105;BME280;38103;42.776;23.112;2022-11-20T05:48:45;93258.94;;;14.94;85.07
52105;BME280;38103;42.776;23.112;2022-11-20T05:51:14;93271.16;;;14.95;84.65
52105;BME280;38103;42.776;23.112;2022-11-20T05:53:40;93277.53;;;14.99;85.10
52105;BME280;38103;42.776;23.112;2022-11-20T05:56:08;93266.94;;;14.94;84.73
52105;BME280;38103;42.776;23.112;2022-11-20T05:58:38;93259.09;;;14.73;84.64
52105;BME280;38103;42.776;23.112;2022-11-20T06:01:06;93296.44;;;14.97;84.21
52105;BME280;38103;42.776;23.112;2022-11-20T06:03:31;93296.22;;;14.94;84.74
52105;BME280;38103;42.776;23.112;2022-11-20T06:05:59;93290.81;;;15.04;84.02
52105;BME280;38103;42.776;23.112;2022-11-20T06:08:24;93294.53;;;15.03;84.41
52105;BME280;38103;42.776;23.112;2022-11-20T06:10:50;93293.50;;;14.99;84.52
52105;BME280;38103;42.776;23.112;2022-11-20T06:13:15;93289.69;;;15.11;84.37
52105;BME280;38103;42.776;23.112;2022-11-20T06:15:40;93297.13;;;15.14;83.71
52105;BME280;38103;42.776;23.112;2022-11-20T06:18:06;93305.09;;;15.14;83.93
52105;BME280;38103;42.776;23.112;2022-11-20T06:20:31;93304.09;;;15.10;84.44
52105;BME280;38103;42.776;23.112;2022-11-20T06:22:57;93300.84;;;15.13;84.88
52105;BME280;38103;42.776;23.112;2022-11-20T06:25:22;93295.84;;;15.06;84.76
52105;BME280;38103;42.776;23.112;2022-11-20T06:27:47;93304.09;;;15.10;85.38
52105;BME280;38103;42.776;23.112;2022-11-20T06:30:13;93298.03;;;15.28;84.60
52105;BME280;38103;42.776;23.112;2022-11-20T06:32:38;93307.34;;;15.61;84.09
52105;BME280;38103;42.776;23.112;2022-11-20T06:35:04;93303.47;;;15.72;83.13
52105;BME280;38103;42.776;23.112;2022-11-20T06:37:29;93301.09;;;15.95;82.46
52105;BME280;38103;42.776;23.112;2022-11-20T06:39:54;93303.09;;;16.09;82.64
52105;BME280;38103;42.776;23.112;2022-11-20T06:42:20;93310.63;;;16.26;81.09
52105;BME280;38103;42.776;23.112;2022-11-20T06:44:45;93316.13;;;16.35;80.44
52105;BME280;38103;42.776;23.112;2022-11-20T06:47:11;93330.78;;;16.57;80.62
52105;BME280;38103;42.776;23.112;2022-11-20T06:49:36;93316.78;;;16.66;79.83
52105;BME280;38103;42.776;23.112;2022-11-20T06:52:03;93331.78;;;16.61;79.43
52105;BME280;38103;42.776;23.112;2022-11-20T06:54:29;93334.59;;;16.51;80.12
52105;BME280;38103;42.776;23.112;2022-11-20T06:56:54;93328.47;;;16.50;80.39
52105;BME280;38103;42.776;23.112;2022-11-20T06:59:19;93319.22;;;16.42;80.50
52105;BME280;38103;42.776;23.112;2022-11-20T07:01:45;93335.13;;;16.04;81.22
52105;BME280;38103;42.776;23.112;2022-11-20T07:04:10;93347.06;;;15.87;81.86
52105;BME280;38103;42.776;23.112;2022-11-20T07:06:35;93352.03;;;15.69;83.04
52105;BME280;38103;42.776;23.112;2022-11-20T07:09:01;93354.34;;;15.46;83.31
52105;BME280;38103;42.776;23.112;2022-11-20T07:11:27;93360.97;;;15.19;85.13
52105;BME280;38103;42.776;23.112;2022-11-20T07:13:52;93366.22;;;15.29;84.27
52105;BME280;38103;42.776;23.112;2022-11-20T07:16:17;93368.91;;;15.24;84.85
52105;BME280;38103;42.776;23.112;2022-11-20T07:18:43;93363.81;;;14.93;85.99
52105;BME280;38103;42.776;23.112;2022-11-20T07:21:09;93359.03;;;14.90;86.81
52105;BME280;38103;42.776;23.112;2022-11-20T07:23:35;93362.78;;;14.83;86.52
52105;BME280;38103;42.776;23.112;2022-11-20T07:26:08;93355.94;;;14.67;88.00
52105;BME280;38103;42.776;23.112;2022-11-20T07:28:35;93346.47;;;14.55;88.40
52105;BME280;38103;42.776;23.112;2022-11-20T07:31:00;93343.31;;;14.48;88.41
52105;BME280;38103;42.776;23.112;2022-11-20T07:33:26;93303.78;;;14.25;89.02
52105;BME280;38103;42.776;23.112;2022-11-20T07:35:51;93343.31;;;14.48;89.00
52105;BME280;38103;42.776;23.112;2022-11-20T07:38:17;93342.81;;;14.40;89.43
52105;BME280;38103;42.776;23.112;2022-11-20T07:40:42;93337.53;;;14.30;90.31
52105;BME280;38103;42.776;23.112;2022-11-20T07:43:07;93341.84;;;14.15;91.36
52105;BME280;38103;42.776;23.112;2022-11-20T07:45:33;93346.72;;;13.87;92.65
52105;BME280;38103;42.776;23.112;2022-11-20T07:47:58;93359.16;;;14.02;92.46
52105;BME280;38103;42.776;23.112;2022-11-20T07:50:23;93352.56;;;13.84;93.77
52105;BME280;38103;42.776;23.112;2022-11-20T07:52:49;93355.22;;;13.89;93.57
52105;BME280;38103;42.776;23.112;2022-11-20T07:55:15;93357.66;;;13.80;94.17
52105;BME280;38103;42.776;23.112;2022-11-20T07:57:40;93367.97;;;13.87;94.67
52105;BME280;38103;42.776;23.112;2022-11-20T08:00:07;93365.28;;;14.03;94.28
52105;BME280;38103;42.776;23.112;2022-11-20T08:02:42;93347.69;;;14.12;92.82
52105;BME280;38103;42.776;23.112;2022-11-20T08:05:10;93361.44;;;14.35;91.56
52105;BME280;38103;42.776;23.112;2022-11-20T08:07:39;93355.53;;;14.49;90.77
52105;BME280;38103;42.776;23.112;2022-11-20T08:10:07;93368.19;;;14.68;89.92
52105;BME280;38103;42.776;23.112;2022-11-20T08:12:33;93358.53;;;14.82;89.70
52105;BME280;38103;42.776;23.112;2022-11-20T08:15:16;93357.91;;;15.01;89.23
52105;BME280;38103;42.776;23.112;2022-11-20T08:17:42;93350.31;;;15.19;89.36
52105;BME280;38103;42.776;23.112;2022-11-20T08:20:08;93357.94;;;15.31;89.40
52105;BME280;38103;42.776;23.112;2022-11-20T08:22:34;93319.97;;;15.20;90.03
52105;BME280;38103;42.776;23.112;2022-11-20T08:24:59;93352.88;;;15.35;90.71
52105;BME280;38103;42.776;23.112;2022-11-20T08:27:25;93357.09;;;15.41;92.65
52105;BME280;38103;42.776;23.112;2022-11-20T08:29:50;93367.75;;;15.41;92.28
52105;BME280;38103;42.776;23.112;2022-11-20T08:32:15;93364.41;;;15.25;93.90
52105;BME280;38103;42.776;23.112;2022-11-20T08:34:41;93374.28;;;15.19;95.62
52105;BME280;38103;42.776;23.112;2022-11-20T08:37:06;93364.81;;;15.07;97.21
52105;BME280;38103;42.776;23.112;2022-11-20T08:39:31;93361.66;;;14.95;97.85
52105;BME280;38103;42.776;23.112;2022-11-20T08:41:57;93363.84;;;14.82;98.23
52105;BME280;38103;42.776;23.112;2022-11-20T08:44:22;93371.28;;;14.91;100.00
52105;BME280;38103;42.776;23.112;2022-11-20T08:46:48;93370.84;;;14.73;99.11
52105;BME280;38103;42.776;23.112;2022-11-20T08:49:14;93376.22;;;14.62;100.00
52105;BME280;38103;42.776;23.112;2022-11-20T08:51:40;93383.66;;;14.60;100.00
52105;BME280;38103;42.776;23.112;2022-11-20T08:54:06;93363.81;;;14.37;100.00
52105;BME280;38103;42.776;23.112;2022-11-20T08:56:32;93395.41;;;14.49;100.00
52105;BME280;38103;42.776;23.112;2022-11-20T08:58:58;93400.25;;;14.36;100.00
52105;BME280;38103;42.776;23.112;2022-11-20T09:01:26;93390.16;;;14.33;100.00
52105;BME280;38103;42.776;23.112;2022-11-20T09:03:52;93372.72;;;14.01;100.00
52105;BME280;38103;42.776;23.112;2022-11-20T09:06:17;93388.66;;;14.11;100.00
52105;BME280;38103;42.776;23.112;2022-11-20T09:08:43;93383.56;;;14.15;100.00
52105;BME280;38103;42.776;23.112;2022-11-20T09:11:09;93381.72;;;14.15;100.00
52105;BME280;38103;42.776;23.112;2022-11-20T09:13:35;93375.31;;;14.22;100.00
52105;BME280;38103;42.776;23.112;2022-11-20T09:16:03;93380.69;;;14.06;100.00
52105;BME280;38103;42.776;23.112;2022-11-20T09:18:30;93363.50;;;13.77;100.00
52105;BME280;38103;42.776;23.112;2022-11-20T09:21:03;93378.03;;;14.01;100.00
52105;BME280;38103;42.776;23.112;2022-11-20T09:23:34;93336.63;;;13.79;100.00
52105;BME280;38103;42.776;23.112;2022-11-20T09:26:07;93378.09;;;13.80;100.00
52105;BME280;38103;42.776;23.112;2022-11-20T09:28:33;93369.06;;;13.81;100.00
52105;BME280;38103;42.776;23.112;2022-11-20T09:30:59;93351.53;;;13.80;98.95
52105;BME280;38103;42.776;23.112;2022-11-20T09:33:25;93347.00;;;13.80;99.39
52105;BME280;38103;42.776;23.112;2022-11-20T09:35:50;93341.94;;;13.84;99.09
52105;BME280;38103;42.776;23.112;2022-11-20T09:38:16;93345.13;;;13.91;100.00
52105;BME280;38103;42.776;23.112;2022-11-20T09:41:01;93338.16;;;14.11;100.00
52105;BME280;38103;42.776;23.112;2022-11-20T09:46:43;93343.78;;;14.60;100.00
52105;BME280;38103;42.776;23.112;2022-11-20T09:51:57;93336.56;;;15.06;100.00
52105;BME280;38103;42.776;23.112;2022-11-20T09:54:33;93337.00;;;15.19;95.00
52105;BME280;38103;42.776;23.112;2022-11-20T09:57:04;93338.19;;;15.37;95.64
52105;BME280;38103;42.776;23.112;2022-11-20T09:59:38;93348.97;;;15.51;96.00
52105;BME280;38103;42.776;23.112;2022-11-20T10:04:54;93295.88;;;15.36;92.40
52105;BME280;38103;42.776;23.112;2022-11-20T10:09:57;93316.75;;;15.53;93.72
52105;BME280;38103;42.776;23.112;2022-11-20T10:15:04;93329.81;;;15.79;94.71
52105;BME280;38103;42.776;23.112;2022-11-20T10:17:55;93329.22;;;15.82;94.44
52105;BME280;38103;42.776;23.112;2022-11-20T10:30:43;93312.91;;;15.05;96.97
52105;BME280;38103;42.776;23.112;2022-11-20T10:33:23;93305.22;;;14.98;98.96
52105;BME280;38103;42.776;23.112;2022-11-20T10:36:08;93293.56;;;14.94;100.00
52105;BME280;38103;42.776;23.112;2022-11-20T10:38:44;93281.34;;;14.88;100.00
52105;BME280;38103;42.776;23.112;2022-11-20T10:41:19;93287.38;;;14.63;100.00
52105;BME280;38103;42.776;23.112;2022-11-20T10:44:15;93273.50;;;14.61;100.00
52105;BME280;38103;42.776;23.112;2022-11-20T10:47:00;93271.53;;;14.43;99.01
52105;BME280;38103;42.776;23.112;2022-11-20T10:49:25;93277.13;;;14.36;98.13
52105;BME280;38103;42.776;23.112;2022-11-20T10:51:59;93265.28;;;14.12;95.40
52105;BME280;38103;42.776;23.112;2022-11-20T10:54:44;93279.75;;;13.90;92.75
52105;BME280;38103;42.776;23.112;2022-11-20T11:05:16;93278.81;;;13.49;87.96
52105;BME280;38103;42.776;23.112;2022-11-20T11:07:44;93287.84;;;13.38;87.33
52105;BME280;38103;42.776;23.112;2022-11-20T11:12:49;93282.00;;;13.41;86.94
52105;BME280;38103;42.776;23.112;2022-11-20T11:15:42;93282.56;;;13.17;89.70
52105;BME280;38103;42.776;23.112;2022-11-20T11:18:09;93291.59;;;13.05;91.85
52105;BME280;38103;42.776;23.112;2022-11-20T11:20:35;93307.00;;;12.77;92.95
52105;BME280;38103;42.776;23.112;2022-11-20T11:23:01;93299.00;;;12.51;94.70
52105;BME280;38103;42.776;23.112;2022-11-20T11:25:32;93296.84;;;12.32;97.42
52105;BME280;38103;42.776;23.112;2022-11-20T11:28:21;93305.56;;;12.27;97.40
52105;BME280;38103;42.776;23.112;2022-11-20T11:30:49;93300.00;;;12.24;97.25
52105;BME280;38103;42.776;23.112;2022-11-20T11:33:23;93313.25;;;12.18;96.94
52105;BME280;38103;42.776;23.112;2022-11-20T11:35:51;93316.69;;;12.24;95.74
52105;BME280;38103;42.776;23.112;2022-11-20T11:38:42;93319.66;;;12.38;95.79
52105;BME280;38103;42.776;23.112;2022-11-20T11:41:25;93337.72;;;12.47;94.97
52105;BME280;38103;42.776;23.112;2022-11-20T11:43:58;93331.84;;;12.45;92.96
52105;BME280;38103;42.776;23.112;2022-11-20T11:46:51;93350.41;;;12.50;94.34
52105;BME280;38103;42.776;23.112;2022-11-20T11:49:18;93354.66;;;12.46;93.92
52105;BME280;38103;42.776;23.112;2022-11-20T11:51:59;93349.88;;;12.37;95.35
52105;BME280;38103;42.776;23.112;2022-11-20T11:54:37;93349.81;;;12.22;95.19
52105;BME280;38103;42.776;23.112;2022-11-20T11:57:10;93351.94;;;12.20;95.66
52105;BME280;38103;42.776;23.112;2022-11-20T11:59:51;93348.16;;;12.10;96.49
52105;BME280;38103;42.776;23.112;2022-11-20T12:05:18;93347.00;;;11.85;99.62
52105;BME280;38103;42.776;23.112;2022-11-20T12:08:01;93342.16;;;11.71;100.00
52105;BME280;38103;42.776;23.112;2022-11-20T12:13:00;93349.50;;;11.59;100.00
52105;BME280;38103;42.776;23.112;2022-11-20T12:15:32;93352.06;;;11.43;100.00
52105;BME280;38103;42.776;23.112;2022-11-20T12:17:58;93304.09;;;10.96;100.00
52105;BME280;38103;42.776;23.112;2022-11-20T12:20:40;93346.91;;;11.26;100.00
52105;BME280;38103;42.776;23.112;2022-11-20T12:23:24;93348.50;;;11.27;100.00
52105;BME280;38103;42.776;23.112;2022-11-20T12:25:56;93332.91;;;10.92;100.00
52105;BME280;38103;42.776;23.112;2022-11-20T12:31:36;93355.09;;;11.24;100.00
52105;BME280;38103;42.776;23.112;2022-11-20T12:36:57;93338.59;;;11.50;100.00
52105;BME280;38103;42.776;23.112;2022-11-20T12:45:46;93338.97;;;11.69;100.00
52105;BME280;38103;42.776;23.112;2022-11-20T12:48:42;93334.25;;;11.77;100.00
52105;BME280;38103;42.776;23.112;2022-11-20T13:01:50;93320.19;;;12.40;100.00
52105;BME280;38103;42.776;23.112;2022-11-20T13:06:48;93323.88;;;12.29;100.00
52105;BME280;38103;42.776;23.112;2022-11-20T13:09:17;93320.97;;;12.31;100.00
52105;BME280;38103;42.776;23.112;2022-11-20T13:11:54;93342.44;;;12.34;100.00
52105;BME280;38103;42.776;23.112;2022-11-20T13:14:37;93344.06;;;12.46;100.00
52105;BME280;38103;42.776;23.112;2022-11-20T13:17:33;93346.19;;;12.49;100.00
52105;BME280;38103;42.776;23.112;2022-11-20T13:20:04;93345.69;;;12.52;100.00
52105;BME280;38103;42.776;23.112;2022-11-20T13:22:50;93337.97;;;12.56;100.00
52105;BME280;38103;42.776;23.112;2022-11-20T13:25:33;93340.91;;;12.54;100.00
52105;BME280;38103;42.776;23.112;2022-11-20T13:28:01;93304.78;;;12.27;100.00
52105;BME280;38103;42.776;23.112;2022-11-20T13:30:29;93312.22;;;12.35;100.00
52105;BME280;38103;42.776;23.112;2022-11-20T13:38:09;93338.16;;;12.23;100.00
52105;BME280;38103;42.776;23.112;2022-11-20T13:40:53;93329.16;;;12.18;100.00
52105;BME280;38103;42.776;23.112;2022-11-20T13:46:02;93321.66;;;12.10;100.00
52105;BME280;38103;42.776;23.112;2022-11-20T13:48:34;93298.22;;;11.81;100.00
52105;BME280;38103;42.776;23.112;2022-11-20T13:56:51;93324.81;;;12.02;100.00
52105;BME280;38103;42.776;23.112;2022-11-20T14:02:15;93319.69;;;11.79;100.00
52105;BME280;38103;42.776;23.112;2022-11-20T14:04:49;93327.88;;;11.78;100.00
52105;BME280;38103;42.776;23.112;2022-11-20T14:07:20;93337.94;;;11.76;100.00
52105;BME280;38103;42.776;23.112;2022-11-20T14:09:52;93324.19;;;11.84;100.00
52105;BME280;38103;42.776;23.112;2022-11-20T14:12:20;93321.56;;;11.89;100.00
52105;BME280;38103;42.776;23.112;2022-11-20T14:14:51;93305.09;;;11.71;100.00
52105;BME280;38103;42.776;23.112;2022-11-20T14:17:19;93309.88;;;11.75;100.00
52105;BME280;38103;42.776;23.112;2022-11-20T14:19:46;93312.47;;;11.64;100.00
52105;BME280;38103;42.776;23.112;2022-11-20T14:24:44;93286.47;;;11.56;100.00
52105;BME280;38103;42.776;23.112;2022-11-20T14:27:15;93287.97;;;11.36;100.00